createdAt,value
2019-06-27T00:00:56.018Z,0
2019-06-27T00:01:56.102Z,0
2019-06-27T00:02:56.193Z,0
2019-06-27T00:03:56.229Z,0
2019-06-27T00:04:56.375Z,0
2019-06-27T00:05:56.420Z,0
2019-06-27T00:06:56.532Z,0
2019-06-27T00:07:56.527Z,0
2019-06-27T00:08:56.541Z,0
2019-06-27T00:09:56.607Z,0
2019-06-27T00:10:56.625Z,0
2019-06-27T00:11:56.684Z,0
2019-06-27T00:12:56.772Z,0
2019-06-27T00:13:56.877Z,0
2019-06-27T00:14:56.906Z,0
2019-06-27T00:15:57.027Z,0
2019-06-27T00:16:57.017Z,0
2019-06-27T00:17:57.097Z,0
2019-06-27T00:18:57.178Z,0
2019-06-27T00:19:57.323Z,0
2019-06-27T00:20:57.446Z,0
2019-06-27T00:21:57.526Z,0
2019-06-27T00:22:57.624Z,0
2019-06-27T00:23:57.640Z,0
2019-06-27T00:24:57.780Z,0
2019-06-27T00:25:57.829Z,0
2019-06-27T00:26:57.854Z,0
2019-06-27T00:27:57.954Z,0
2019-06-27T00:28:57.997Z,0
2019-06-27T00:29:58.120Z,0
2019-06-27T00:30:58.261Z,0
2019-06-27T00:31:58.228Z,0
2019-06-27T00:32:58.332Z,0
2019-06-27T00:33:58.432Z,0
2019-06-27T00:34:58.647Z,0
2019-06-27T00:35:58.697Z,0
2019-06-27T00:36:58.681Z,0
2019-06-27T00:37:58.679Z,0
2019-06-27T00:38:58.707Z,0
2019-06-27T00:39:58.708Z,0
2019-06-27T00:40:58.809Z,0
2019-06-27T00:41:58.836Z,0
2019-06-27T00:42:58.874Z,0
2019-06-27T00:43:58.976Z,0
2019-06-27T00:44:59.108Z,0
2019-06-27T00:45:59.243Z,0
2019-06-27T00:46:59.195Z,0
2019-06-27T00:47:59.311Z,0
2019-06-27T00:48:59.398Z,0
2019-06-27T00:49:59.525Z,0
2019-06-27T00:50:59.615Z,0
2019-06-27T00:51:59.711Z,0
2019-06-27T00:52:59.823Z,0
2019-06-27T00:53:59.929Z,0
2019-06-27T00:55:00.004Z,0
2019-06-27T00:56:00.114Z,0
2019-06-27T00:57:13.249Z,0
2019-06-27T00:58:01.233Z,0
2019-06-27T00:59:00.271Z,0
2019-06-27T01:00:00.358Z,0
2019-06-27T01:01:00.463Z,0
2019-06-27T01:02:00.576Z,0
2019-06-27T01:03:00.635Z,0
2019-06-27T01:04:00.725Z,0
2019-06-27T01:05:00.832Z,0
2019-06-27T01:06:00.898Z,0
2019-06-27T01:07:01.022Z,0
2019-06-27T01:08:01.110Z,0
2019-06-27T01:09:01.196Z,0
2019-06-27T01:10:01.424Z,0
2019-06-27T01:11:01.284Z,0
2019-06-27T01:12:01.433Z,0
2019-06-27T01:13:01.398Z,0
2019-06-27T01:14:01.526Z,0
2019-06-27T01:15:01.522Z,0
2019-06-27T01:16:01.698Z,0
2019-06-27T01:17:01.778Z,0
2019-06-27T01:18:01.875Z,0
2019-06-27T01:19:01.938Z,0
2019-06-27T01:20:01.962Z,0
2019-06-27T01:21:02.023Z,0
2019-06-27T01:22:02.019Z,0
2019-06-27T01:23:02.057Z,0
2019-06-27T01:24:02.176Z,0
2019-06-27T01:25:02.318Z,0
2019-06-27T01:26:02.409Z,0
2019-06-27T01:27:02.512Z,0
2019-06-27T01:28:02.610Z,0
2019-06-27T01:29:02.713Z,0
2019-06-27T01:30:02.824Z,0
2019-06-27T01:31:02.929Z,0
2019-06-27T01:32:03.043Z,0
2019-06-27T01:33:03.114Z,0
2019-06-27T01:34:03.217Z,0
2019-06-27T01:35:04.407Z,0
2019-06-27T01:36:03.369Z,0
2019-06-27T01:37:03.439Z,0
2019-06-27T01:38:03.630Z,0
2019-06-27T01:39:03.698Z,0
2019-06-27T01:40:03.760Z,0
2019-06-27T01:41:03.854Z,0
2019-06-27T01:42:03.945Z,0
2019-06-27T01:43:03.993Z,0
2019-06-27T01:44:04.075Z,0
2019-06-27T01:45:04.173Z,0
2019-06-27T01:46:04.237Z,0
2019-06-27T01:47:04.323Z,0
2019-06-27T01:48:04.456Z,0
2019-06-27T01:49:04.521Z,0
2019-06-27T01:50:04.605Z,0
2019-06-27T01:51:04.705Z,0
2019-06-27T01:52:04.753Z,0
2019-06-27T01:53:04.881Z,0
2019-06-27T01:54:04.970Z,0
2019-06-27T01:55:05.057Z,0
2019-06-27T01:56:05.124Z,0
2019-06-27T01:57:05.145Z,0
2019-06-27T01:58:05.265Z,0
2019-06-27T01:59:05.268Z,0
2019-06-27T02:00:05.364Z,0
2019-06-27T02:01:05.448Z,0
2019-06-27T02:02:05.548Z,0
2019-06-27T02:03:05.647Z,0
2019-06-27T02:04:05.693Z,0
2019-06-27T02:05:05.824Z,0
2019-06-27T02:06:05.843Z,0
2019-06-27T02:07:05.942Z,0
2019-06-27T02:08:05.937Z,0
2019-06-27T02:09:06.050Z,0
2019-06-27T02:10:06.141Z,0
2019-06-27T02:11:06.194Z,0
2019-06-27T02:12:06.265Z,0
2019-06-27T02:13:06.337Z,0
2019-06-27T02:14:06.518Z,0
2019-06-27T02:15:06.612Z,0
2019-06-27T02:16:06.698Z,0
2019-06-27T02:17:06.811Z,0
2019-06-27T02:18:06.881Z,0
2019-06-27T02:19:06.938Z,0
2019-06-27T02:20:06.972Z,0
2019-06-27T02:21:07.051Z,0
2019-06-27T02:22:07.113Z,0
2019-06-27T02:23:07.142Z,0
2019-06-27T02:24:07.152Z,0
2019-06-27T02:25:07.117Z,0
2019-06-27T02:26:07.217Z,1
2019-06-27T02:27:07.308Z,1
2019-06-27T02:28:07.388Z,1
2019-06-27T02:29:07.512Z,0
2019-06-27T02:30:07.628Z,0
2019-06-27T02:31:07.731Z,1
2019-06-27T02:32:07.807Z,1
2019-06-27T02:33:07.880Z,1
2019-06-27T02:34:08.000Z,1
2019-06-27T02:35:08.074Z,1
2019-06-27T02:36:08.173Z,1
2019-06-27T02:37:08.276Z,1
2019-06-27T02:38:08.392Z,1
2019-06-27T02:39:08.515Z,2
2019-06-27T02:40:08.509Z,2
2019-06-27T02:41:08.603Z,2
2019-06-27T02:42:08.724Z,2
2019-06-27T02:43:08.834Z,3
2019-06-27T02:44:08.942Z,4
2019-06-27T02:45:09.045Z,4
2019-06-27T02:46:09.134Z,4
2019-06-27T02:47:09.244Z,5
2019-06-27T02:48:09.359Z,6
2019-06-27T02:49:10.497Z,6
2019-06-27T02:50:09.601Z,7
2019-06-27T02:51:09.699Z,8
2019-06-27T02:52:09.844Z,10
2019-06-27T02:53:09.927Z,10
2019-06-27T02:54:10.078Z,11
2019-06-27T02:55:10.191Z,13
2019-06-27T02:56:10.285Z,14
2019-06-27T02:57:10.376Z,16
2019-06-27T02:58:28.384Z,19
2019-06-27T02:59:11.656Z,20
2019-06-27T03:00:10.668Z,22
2019-06-27T03:01:10.763Z,24
2019-06-27T03:02:10.899Z,27
2019-06-27T03:03:10.998Z,30
2019-06-27T03:04:11.103Z,34
2019-06-27T03:05:11.280Z,37
2019-06-27T03:06:11.209Z,40
2019-06-27T03:07:11.359Z,42
2019-06-27T03:08:11.419Z,47
2019-06-27T03:09:11.514Z,49
2019-06-27T03:10:11.672Z,52
2019-06-27T03:11:11.784Z,55
2019-06-27T03:12:11.879Z,60
2019-06-27T03:13:11.977Z,65
2019-06-27T03:14:12.094Z,68
2019-06-27T03:15:12.224Z,72
2019-06-27T03:16:12.360Z,78
2019-06-27T03:17:12.471Z,83
2019-06-27T03:18:12.555Z,89
2019-06-27T03:19:12.665Z,96
2019-06-27T03:20:12.787Z,104
2019-06-27T03:21:12.901Z,113
2019-06-27T03:22:13.012Z,121
2019-06-27T03:23:13.124Z,128
2019-06-27T03:24:13.208Z,136
2019-06-27T03:25:13.305Z,144
2019-06-27T03:26:13.488Z,157
2019-06-27T03:27:13.564Z,170
2019-06-27T03:28:13.666Z,184
2019-06-27T03:29:13.785Z,191
2019-06-27T03:30:13.933Z,201
2019-06-27T03:31:14.081Z,208
2019-06-27T03:32:14.170Z,207
2019-06-27T03:33:14.322Z,215
2019-06-27T03:34:14.435Z,231
2019-06-27T03:35:14.579Z,248
2019-06-27T03:36:14.693Z,279
2019-06-27T03:37:14.791Z,290
2019-06-27T03:38:14.918Z,308
2019-06-27T03:39:14.899Z,313
2019-06-27T03:40:15.011Z,329
2019-06-27T03:41:15.136Z,343
2019-06-27T03:42:15.240Z,363
2019-06-27T03:43:15.311Z,409
2019-06-27T03:44:15.427Z,412
2019-06-27T03:45:16.295Z,424
2019-06-27T03:46:15.548Z,428
2019-06-27T03:47:15.676Z,443
2019-06-27T03:48:15.781Z,446
2019-06-27T03:49:15.764Z,470
2019-06-27T03:50:15.952Z,493
2019-06-27T03:51:15.974Z,501
2019-06-27T03:52:15.927Z,526
2019-06-27T03:53:15.948Z,578
2019-06-27T03:54:16.051Z,579
2019-06-27T03:55:16.109Z,610
2019-06-27T03:56:16.302Z,611
2019-06-27T03:57:16.241Z,690
2019-06-27T03:58:16.374Z,703
2019-06-27T03:59:16.481Z,789
2019-06-27T04:00:16.573Z,732
2019-06-27T04:01:16.713Z,762
2019-06-27T04:02:16.781Z,845
2019-06-27T04:03:16.835Z,848
2019-06-27T04:04:16.977Z,876
2019-06-27T04:05:16.946Z,861
2019-06-27T04:06:17.094Z,875
2019-06-27T04:07:17.236Z,991
2019-06-27T04:08:17.197Z,958
2019-06-27T04:09:17.349Z,966
2019-06-27T04:10:17.910Z,935
2019-06-27T04:11:17.462Z,1001
2019-06-27T04:12:17.654Z,978
2019-06-27T04:13:17.596Z,983
2019-06-27T04:14:17.653Z,1082
2019-06-27T04:15:17.703Z,1090
2019-06-27T04:16:17.764Z,1065
2019-06-27T04:17:17.837Z,1048
2019-06-27T04:18:17.853Z,1093
2019-06-27T04:19:17.914Z,1098
2019-06-27T04:20:17.964Z,1160
2019-06-27T04:21:17.994Z,1256
2019-06-27T04:22:18.101Z,1246
2019-06-27T04:23:18.089Z,1245
2019-06-27T04:24:18.113Z,1259
2019-06-27T04:25:18.154Z,1290
2019-06-27T04:26:18.185Z,1277
2019-06-27T04:27:18.256Z,1250
2019-06-27T04:28:18.322Z,1257
2019-06-27T04:29:32.477Z,1423
2019-06-27T04:30:18.378Z,1428
2019-06-27T04:31:18.414Z,1409
2019-06-27T04:32:18.513Z,1456
2019-06-27T04:33:18.530Z,1426
2019-06-27T04:34:20.003Z,1498
2019-06-27T04:35:18.605Z,1520
2019-06-27T04:36:18.671Z,1423
2019-06-27T04:37:18.768Z,1542
2019-06-27T04:38:18.804Z,1566
2019-06-27T04:39:18.916Z,1543
2019-06-27T04:40:18.914Z,1448
2019-06-27T04:41:18.973Z,1489
2019-06-27T04:42:19.063Z,1458
2019-06-27T04:43:19.119Z,1509
2019-06-27T04:44:19.189Z,1570
2019-06-27T04:45:19.222Z,1674
2019-06-27T04:46:19.251Z,1609
2019-06-27T04:47:19.323Z,1615
2019-06-27T04:48:19.397Z,1756
2019-06-27T04:49:19.438Z,1806
2019-06-27T04:50:19.471Z,1935
2019-06-27T04:51:19.531Z,1917
2019-06-27T04:52:19.565Z,1919
2019-06-27T04:53:19.623Z,1947
2019-06-27T04:54:19.658Z,2007
2019-06-27T04:55:19.697Z,2042
2019-06-27T04:56:19.719Z,2072
2019-06-27T04:57:19.765Z,2140
2019-06-27T04:58:19.842Z,2138
2019-06-27T04:59:19.865Z,2311
2019-06-27T05:00:19.927Z,2160
2019-06-27T05:01:19.976Z,2270
2019-06-27T05:02:20.131Z,2461
2019-06-27T05:03:21.206Z,2374
2019-06-27T05:04:20.244Z,2484
2019-06-27T05:05:20.319Z,2443
2019-06-27T05:06:20.358Z,2421
2019-06-27T05:07:20.435Z,2429
2019-06-27T05:08:20.527Z,2631
2019-06-27T05:09:20.557Z,2426
2019-06-27T05:10:20.602Z,2337
2019-06-27T05:11:20.633Z,2485
2019-06-27T05:12:20.672Z,2567
2019-06-27T05:13:20.761Z,2563
2019-06-27T05:14:20.836Z,2564
2019-06-27T05:15:21.843Z,2607
2019-06-27T05:16:20.892Z,2701
2019-06-27T05:17:20.947Z,2696
2019-06-27T05:18:20.997Z,2947
2019-06-27T05:19:21.024Z,3159
2019-06-27T05:20:21.096Z,2644
2019-06-27T05:21:21.124Z,2832
2019-06-27T05:22:21.165Z,2939
2019-06-27T05:23:21.238Z,2972
2019-06-27T05:24:21.351Z,3028
2019-06-27T05:25:21.409Z,3189
2019-06-27T05:26:21.429Z,3122
2019-06-27T05:27:21.478Z,3251
2019-06-27T05:28:21.501Z,3202
2019-06-27T05:29:21.609Z,3206
2019-06-27T05:30:21.662Z,3399
2019-06-27T05:31:21.728Z,3458
2019-06-27T05:32:21.793Z,3699
2019-06-27T05:33:21.856Z,3678
2019-06-27T05:34:21.947Z,3471
2019-06-27T05:35:22.010Z,3194
2019-06-27T05:36:22.044Z,3275
2019-06-27T05:37:23.070Z,3464
2019-06-27T05:38:22.082Z,3672
2019-06-27T05:39:22.204Z,3893
2019-06-27T05:40:22.252Z,4476
2019-06-27T05:41:22.294Z,4167
2019-06-27T05:42:22.348Z,3928
2019-06-27T05:43:22.321Z,3805
2019-06-27T05:44:23.414Z,3903
2019-06-27T05:45:22.431Z,4189
2019-06-27T05:46:22.459Z,4065
2019-06-27T05:47:22.515Z,3503
2019-06-27T05:48:22.573Z,4142
2019-06-27T05:49:22.583Z,4163
2019-06-27T05:50:22.633Z,4109
2019-06-27T05:51:22.637Z,3886
2019-06-27T05:52:22.656Z,3758
2019-06-27T05:53:22.708Z,3621
2019-06-27T05:54:22.765Z,3968
2019-06-27T05:55:22.786Z,3790
2019-06-27T05:56:22.837Z,3961
2019-06-27T05:57:22.864Z,4363
2019-06-27T05:58:22.926Z,4163
2019-06-27T05:59:22.974Z,4016
2019-06-27T06:00:28.592Z,3928
2019-06-27T06:01:23.161Z,4223
2019-06-27T06:02:23.178Z,4188
2019-06-27T06:03:23.233Z,4617
2019-06-27T06:04:24.140Z,4736
2019-06-27T06:05:23.376Z,4319
2019-06-27T06:06:23.392Z,4523
2019-06-27T06:07:23.445Z,4799
2019-06-27T06:08:23.466Z,4739
2019-06-27T06:09:23.529Z,5153
2019-06-27T06:10:23.586Z,5117
2019-06-27T06:11:23.617Z,5116
2019-06-27T06:12:23.672Z,4989
2019-06-27T06:13:23.750Z,5379
2019-06-27T06:14:23.834Z,5195
2019-06-27T06:15:23.870Z,5313
2019-06-27T06:16:23.956Z,5433
2019-06-27T06:17:23.979Z,5655
2019-06-27T06:18:24.110Z,5403
2019-06-27T06:19:24.134Z,5395
2019-06-27T06:20:24.191Z,5072
2019-06-27T06:21:24.214Z,5450
2019-06-27T06:22:24.272Z,8157
2019-06-27T06:23:24.328Z,5432
2019-06-27T06:24:24.321Z,5370
2019-06-27T06:25:24.395Z,5757
2019-06-27T06:26:24.399Z,5852
2019-06-27T06:27:24.406Z,6192
2019-06-27T06:28:24.419Z,5718
2019-06-27T06:29:24.458Z,5792
2019-06-27T06:30:24.520Z,6466
2019-06-27T06:31:25.510Z,6317
2019-06-27T06:32:24.561Z,5164
2019-06-27T06:33:24.590Z,5083
2019-06-27T06:34:24.611Z,4763
2019-06-27T06:35:24.665Z,5138
2019-06-27T06:36:24.739Z,4293
2019-06-27T06:37:24.759Z,4213
2019-06-27T06:38:24.806Z,4339
2019-06-27T06:39:24.823Z,4068
2019-06-27T06:40:24.881Z,3819
2019-06-27T06:41:24.952Z,2941
2019-06-27T06:42:24.984Z,2641
2019-06-27T06:43:25.015Z,2711
2019-06-27T06:44:25.055Z,2656
2019-06-27T06:45:25.089Z,2412
2019-06-27T06:46:25.166Z,2585
2019-06-27T06:47:25.173Z,2547
2019-06-27T06:48:25.214Z,2287
2019-06-27T06:49:25.245Z,2203
2019-06-27T06:50:25.271Z,2197
2019-06-27T06:51:25.346Z,2256
2019-06-27T06:52:25.374Z,2518
2019-06-27T06:53:25.365Z,2637
2019-06-27T06:54:25.436Z,2431
2019-06-27T06:55:25.479Z,2880
2019-06-27T06:56:25.540Z,2549
2019-06-27T06:57:25.642Z,2386
2019-06-27T06:58:25.669Z,2423
2019-06-27T06:59:25.685Z,4367
2019-06-27T07:00:25.711Z,16224
2019-06-27T07:01:25.868Z,28520
2019-06-27T07:02:25.760Z,22720
2019-06-27T07:03:25.787Z,7385
2019-06-27T07:04:25.815Z,2542
2019-06-27T07:05:25.827Z,2198
2019-06-27T07:06:25.855Z,2276
2019-06-27T07:07:25.912Z,2299
2019-06-27T07:08:25.971Z,2320
2019-06-27T07:09:25.986Z,2296
2019-06-27T07:10:26.011Z,2352
2019-06-27T07:11:26.023Z,2355
2019-06-27T07:12:26.099Z,2340
2019-06-27T07:13:26.143Z,2354
2019-06-27T07:14:27.191Z,2419
2019-06-27T07:15:26.227Z,2477
2019-06-27T07:16:26.334Z,2667
2019-06-27T07:17:26.371Z,5667
2019-06-27T07:18:26.473Z,16328
2019-06-27T07:19:26.523Z,30128
2019-06-27T07:20:26.558Z,40792
2019-06-27T07:21:26.630Z,41952
2019-06-27T07:22:26.725Z,42144
2019-06-27T07:23:26.767Z,44480
2019-06-27T07:24:26.834Z,48632
2019-06-27T07:25:26.876Z,51264
2019-06-27T07:26:26.922Z,54176
2019-06-27T07:27:27.033Z,54360
2019-06-27T07:28:27.102Z,55648
2019-06-27T07:29:27.168Z,53464
2019-06-27T07:30:27.320Z,53120
2019-06-27T07:31:27.415Z,50336
2019-06-27T07:32:27.441Z,46368
2019-06-27T07:33:27.464Z,43816
2019-06-27T07:34:27.561Z,41264
2019-06-27T07:35:27.594Z,43264
2019-06-27T07:36:27.644Z,47088
2019-06-27T07:37:27.791Z,54520
2019-06-27T07:38:27.800Z,59392
2019-06-27T07:39:27.875Z,60096
2019-06-27T07:40:27.927Z,57416
2019-06-27T07:41:27.994Z,49904
2019-06-27T07:42:28.081Z,42352
2019-06-27T07:43:28.113Z,37344
2019-06-27T07:44:28.190Z,39032
2019-06-27T07:45:28.255Z,45560
2019-06-27T07:46:28.279Z,54176
2019-06-27T07:47:28.343Z,60456
2019-06-27T07:48:28.387Z,63456
2019-06-27T07:49:28.423Z,62136
2019-06-27T07:50:28.433Z,59000
2019-06-27T07:51:28.501Z,58200
2019-06-27T07:52:28.554Z,59024
2019-06-27T07:53:28.603Z,64024
2019-06-27T07:54:28.653Z,63496
2019-06-27T07:55:28.732Z,62040
2019-06-27T07:56:28.813Z,58544
2019-06-27T07:57:29.851Z,55776
2019-06-27T07:58:28.902Z,53312
2019-06-27T07:59:28.936Z,54128
2019-06-27T08:00:29.075Z,57456
2019-06-27T08:01:34.775Z,63104
2019-06-27T08:02:29.241Z,65535
2019-06-27T08:03:29.294Z,64496
2019-06-27T08:04:29.321Z,59744
2019-06-27T08:05:29.382Z,51248
2019-06-27T08:06:29.463Z,45144
2019-06-27T08:07:29.556Z,44368
2019-06-27T08:08:29.594Z,53640
2019-06-27T08:09:29.634Z,62448
2019-06-27T08:10:29.693Z,65535
2019-06-27T08:11:29.776Z,65535
2019-06-27T08:12:29.822Z,65535
2019-06-27T08:13:30.861Z,60416
2019-06-27T08:14:29.884Z,53496
2019-06-27T08:15:29.930Z,52968
2019-06-27T08:16:29.984Z,61208
2019-06-27T08:17:29.975Z,65535
2019-06-27T08:18:30.037Z,65535
2019-06-27T08:19:30.084Z,65535
2019-06-27T08:20:30.121Z,65535
2019-06-27T08:21:30.145Z,65535
2019-06-27T08:22:30.195Z,65232
2019-06-27T08:23:40.828Z,65535
2019-06-27T08:24:33.433Z,65535
2019-06-27T08:25:31.250Z,65535
2019-06-27T08:26:30.263Z,44464
2019-06-27T08:27:30.286Z,40080
2019-06-27T08:28:30.358Z,55200
2019-06-27T08:29:30.386Z,44216
2019-06-27T08:30:30.427Z,6695
2019-06-27T08:31:30.469Z,24080
2019-06-27T08:32:31.463Z,24000
2019-06-27T08:33:30.512Z,19312
2019-06-27T08:34:30.542Z,18416
2019-06-27T08:35:33.468Z,54912
2019-06-27T08:36:30.581Z,3396
2019-06-27T08:37:30.624Z,3488
2019-06-27T08:38:30.722Z,14856
2019-06-27T08:39:30.723Z,9141
2019-06-27T08:40:30.734Z,29352
2019-06-27T08:41:30.790Z,17252
2019-06-27T08:42:30.825Z,6046
2019-06-27T08:43:30.884Z,5502
2019-06-27T08:44:30.961Z,8606
2019-06-27T08:45:30.977Z,5275
2019-06-27T08:46:31.018Z,12204
2019-06-27T08:47:31.047Z,14515
2019-06-27T08:48:31.158Z,17896
2019-06-27T08:49:31.209Z,56744
2019-06-27T08:50:31.266Z,65535
2019-06-27T08:51:31.394Z,65535
2019-06-27T08:52:31.474Z,65535
2019-06-27T08:53:31.562Z,65535
2019-06-27T08:54:31.654Z,65535
2019-06-27T08:55:31.769Z,65535
2019-06-27T08:56:31.808Z,65535
2019-06-27T08:57:31.878Z,65535
2019-06-27T08:58:32.013Z,65535
2019-06-27T08:59:32.133Z,65535
2019-06-27T09:00:32.245Z,65535
2019-06-27T09:01:32.312Z,65535
2019-06-27T09:02:32.350Z,65535
2019-06-27T09:03:32.387Z,65535
2019-06-27T09:04:32.452Z,65535
2019-06-27T09:05:32.501Z,65535
2019-06-27T09:06:32.589Z,64128
2019-06-27T09:07:32.617Z,57080
2019-06-27T09:08:32.643Z,34736
2019-06-27T09:09:32.726Z,55208
2019-06-27T09:10:32.732Z,17404
2019-06-27T09:11:35.600Z,65535
2019-06-27T09:12:32.839Z,24112
2019-06-27T09:13:32.874Z,14306
2019-06-27T09:14:32.941Z,17704
2019-06-27T09:15:32.981Z,5888
2019-06-27T09:16:33.009Z,8586
2019-06-27T09:17:33.048Z,13368
2019-06-27T09:18:33.037Z,11160
2019-06-27T09:19:33.079Z,0
2019-06-27T09:20:33.113Z,24432
2019-06-27T09:21:33.123Z,34544
2019-06-27T09:22:33.178Z,24560
2019-06-27T09:23:33.195Z,30064
2019-06-27T09:24:33.293Z,21088
2019-06-27T09:25:33.294Z,23000
2019-06-27T09:26:33.325Z,34952
2019-06-27T09:27:33.387Z,61200
2019-06-27T09:28:33.405Z,65535
2019-06-27T09:29:33.524Z,65535
2019-06-27T09:30:33.544Z,65535
2019-06-27T09:31:33.573Z,65535
2019-06-27T09:32:34.625Z,65535
2019-06-27T09:33:33.640Z,65535
2019-06-27T09:34:33.688Z,65535
2019-06-27T09:35:33.758Z,65535
2019-06-27T09:36:33.792Z,65535
2019-06-27T09:37:33.860Z,55112
2019-06-27T09:38:34.136Z,47120
2019-06-27T09:39:34.001Z,56760
2019-06-27T09:40:34.089Z,18016
2019-06-27T09:41:34.113Z,11198
2019-06-27T09:42:34.135Z,13706
2019-06-27T09:43:34.153Z,33424
2019-06-27T09:44:34.181Z,65535
2019-06-27T09:45:34.218Z,62480
2019-06-27T09:46:34.247Z,65535
2019-06-27T09:47:34.287Z,57016
2019-06-27T09:48:34.302Z,3899
2019-06-27T09:49:34.320Z,65535
2019-06-27T09:50:34.379Z,48056
2019-06-27T09:51:34.402Z,45432
2019-06-27T09:52:34.418Z,61264
2019-06-27T09:53:34.433Z,43312
2019-06-27T09:54:34.459Z,24632
2019-06-27T09:55:34.551Z,9420
2019-06-27T09:56:34.503Z,6655
2019-06-27T09:57:34.541Z,4594
2019-06-27T09:58:34.569Z,3951
2019-06-27T09:59:34.604Z,4666
2019-06-27T10:00:34.663Z,9666
2019-06-27T10:01:34.699Z,4483
2019-06-27T10:02:41.315Z,50072
2019-06-27T10:03:34.996Z,4441
2019-06-27T10:04:34.984Z,4167
2019-06-27T10:05:35.131Z,7016
2019-06-27T10:06:35.185Z,12504
2019-06-27T10:07:35.192Z,6323
2019-06-27T10:08:35.247Z,7229
2019-06-27T10:09:35.252Z,7673
2019-06-27T10:10:35.298Z,7279
2019-06-27T10:11:35.388Z,4207
2019-06-27T10:12:42.084Z,4699
2019-06-27T10:13:35.586Z,5535
2019-06-27T10:14:35.621Z,4331
2019-06-27T10:15:35.668Z,7562
2019-06-27T10:16:35.745Z,5649
2019-06-27T10:17:35.742Z,7039
2019-06-27T10:18:35.742Z,65535
2019-06-27T10:19:35.753Z,65535
2019-06-27T10:20:35.785Z,50976
2019-06-27T10:21:35.843Z,44512
2019-06-27T10:22:35.872Z,14817
2019-06-27T10:23:35.899Z,18016
2019-06-27T10:24:35.920Z,11463
2019-06-27T10:25:38.219Z,13038
2019-06-27T10:26:35.998Z,14256
2019-06-27T10:27:36.037Z,10954
2019-06-27T10:28:36.067Z,14688
2019-06-27T10:29:36.136Z,18304
2019-06-27T10:30:36.122Z,44160
2019-06-27T10:31:36.194Z,65535
2019-06-27T10:32:36.242Z,65535
2019-06-27T10:33:37.251Z,65535
2019-06-27T10:34:36.308Z,65535
2019-06-27T10:35:36.341Z,65535
2019-06-27T10:36:38.476Z,65535
2019-06-27T10:37:36.415Z,65535
2019-06-27T10:38:36.433Z,59208
2019-06-27T10:39:36.465Z,61944
2019-06-27T10:40:36.507Z,65535
2019-06-27T10:41:36.605Z,65535
2019-06-27T10:42:36.683Z,65535
2019-06-27T10:43:36.738Z,65535
2019-06-27T10:44:36.820Z,65535
2019-06-27T10:45:36.882Z,65535
2019-06-27T10:46:36.917Z,65535
2019-06-27T10:47:36.992Z,65535
2019-06-27T10:48:37.051Z,65535
2019-06-27T10:49:37.102Z,65535
2019-06-27T10:50:37.135Z,65535
2019-06-27T10:51:38.183Z,65535
2019-06-27T10:52:37.224Z,65535
2019-06-27T10:53:37.225Z,65535
2019-06-27T10:54:37.269Z,65535
2019-06-27T10:55:37.301Z,65535
2019-06-27T10:56:39.843Z,65535
2019-06-27T10:57:37.384Z,65535
2019-06-27T10:58:37.408Z,65535
2019-06-27T10:59:37.446Z,65535
2019-06-27T11:00:37.445Z,65535
2019-06-27T11:01:37.475Z,65535
2019-06-27T11:02:37.535Z,65535
2019-06-27T11:03:38.639Z,65535
2019-06-27T11:04:37.616Z,65535
2019-06-27T11:05:37.627Z,65535
2019-06-27T11:06:37.662Z,65535
2019-06-27T11:07:40.692Z,65535
2019-06-27T11:08:37.793Z,65535
2019-06-27T11:09:37.869Z,65535
2019-06-27T11:10:37.926Z,65535
2019-06-27T11:11:37.995Z,65535
2019-06-27T11:12:38.052Z,65535
2019-06-27T11:13:38.094Z,65535
2019-06-27T11:14:39.106Z,65535
2019-06-27T11:15:39.173Z,65535
2019-06-27T11:16:39.167Z,65535
2019-06-27T11:17:38.225Z,65535
2019-06-27T11:18:38.257Z,65535
2019-06-27T11:19:51.418Z,65535
2019-06-27T11:20:39.443Z,65535
2019-06-27T11:21:38.471Z,65535
2019-06-27T11:22:39.513Z,65535
2019-06-27T11:23:38.534Z,65535
2019-06-27T11:24:38.555Z,65535
2019-06-27T11:25:38.574Z,65535
2019-06-27T11:26:38.601Z,65535
2019-06-27T11:27:38.703Z,65535
2019-06-27T11:28:38.744Z,65535
2019-06-27T11:29:38.773Z,65535
2019-06-27T11:30:38.798Z,65535
2019-06-27T11:31:38.868Z,65535
2019-06-27T11:32:38.946Z,65535
2019-06-27T11:33:39.033Z,65535
2019-06-27T11:34:39.084Z,65535
2019-06-27T11:35:39.150Z,65535
2019-06-27T11:36:39.221Z,65535
2019-06-27T11:37:39.243Z,65535
2019-06-27T11:38:39.314Z,65535
2019-06-27T11:39:39.412Z,65535
2019-06-27T11:40:39.392Z,65535
2019-06-27T11:41:39.417Z,65535
2019-06-27T11:42:39.464Z,59680
2019-06-27T11:43:39.527Z,62560
2019-06-27T11:44:39.549Z,65535
2019-06-27T11:45:39.581Z,65535
2019-06-27T11:46:39.621Z,65535
2019-06-27T11:47:39.669Z,65535
2019-06-27T11:48:39.752Z,65535
2019-06-27T11:49:39.826Z,65535
2019-06-27T11:50:39.836Z,65535
2019-06-27T11:51:39.861Z,65535
2019-06-27T11:52:39.911Z,65535
2019-06-27T11:53:40.028Z,65535
2019-06-27T11:54:40.094Z,65535
2019-06-27T11:55:40.130Z,65535
2019-06-27T11:56:40.131Z,65535
2019-06-27T11:57:40.184Z,65535
2019-06-27T11:58:40.276Z,65535
2019-06-27T11:59:40.361Z,65535
2019-06-27T12:00:40.380Z,65535
2019-06-27T12:01:40.453Z,65535
2019-06-27T12:02:40.495Z,65535
2019-06-27T12:03:49.053Z,65535
2019-06-27T12:04:40.554Z,65535
2019-06-27T12:05:40.583Z,65535
2019-06-27T12:06:40.618Z,65535
2019-06-27T12:07:40.647Z,65535
2019-06-27T12:08:40.665Z,65535
2019-06-27T12:09:40.783Z,65535
2019-06-27T12:10:40.809Z,65535
2019-06-27T12:11:40.849Z,65535
2019-06-27T12:12:40.915Z,65535
2019-06-27T12:13:40.959Z,65535
2019-06-27T12:14:41.009Z,65535
2019-06-27T12:15:41.054Z,65535
2019-06-27T12:16:42.071Z,65535
2019-06-27T12:17:41.117Z,65535
2019-06-27T12:18:41.157Z,65535
2019-06-27T12:19:41.209Z,65535
2019-06-27T12:20:41.252Z,65535
2019-06-27T12:21:41.286Z,65535
2019-06-27T12:22:41.341Z,65535
2019-06-27T12:23:41.399Z,65535
2019-06-27T12:24:41.501Z,65535
2019-06-27T12:25:41.555Z,65535
2019-06-27T12:26:41.625Z,65535
2019-06-27T12:27:41.649Z,65535
2019-06-27T12:28:41.673Z,65535
2019-06-27T12:29:41.788Z,65535
2019-06-27T12:30:41.864Z,65535
2019-06-27T12:31:41.906Z,65535
2019-06-27T12:32:51.554Z,65535
2019-06-27T12:33:43.063Z,65535
2019-06-27T12:34:42.119Z,65535
2019-06-27T12:35:42.212Z,65535
2019-06-27T12:36:42.222Z,65535
2019-06-27T12:37:42.234Z,65535
2019-06-27T12:38:42.266Z,65535
2019-06-27T12:39:43.346Z,65535
2019-06-27T12:40:42.425Z,65535
2019-06-27T12:41:42.452Z,65535
2019-06-27T12:42:42.488Z,65535
2019-06-27T12:43:42.537Z,65535
2019-06-27T12:44:42.617Z,65535
2019-06-27T12:45:42.711Z,65535
2019-06-27T12:46:42.750Z,65535
2019-06-27T12:47:42.818Z,65535
2019-06-27T12:48:42.837Z,65535
2019-06-27T12:50:00.532Z,65535
2019-06-27T12:50:44.061Z,65535
2019-06-27T12:51:43.091Z,65535
2019-06-27T12:52:43.144Z,65535
2019-06-27T12:53:43.191Z,65535
2019-06-27T12:54:44.215Z,65535
2019-06-27T12:55:43.285Z,65535
2019-06-27T12:56:43.328Z,65535
2019-06-27T12:57:43.382Z,65535
2019-06-27T12:58:43.425Z,65535
2019-06-27T12:59:43.453Z,65535
2019-06-27T13:00:43.529Z,65535
2019-06-27T13:01:43.601Z,65535
2019-06-27T13:02:43.628Z,65535
2019-06-27T13:03:43.708Z,65535
2019-06-27T13:04:43.762Z,65535
2019-06-27T13:05:43.812Z,65535
2019-06-27T13:06:43.886Z,65535
2019-06-27T13:07:43.903Z,65535
2019-06-27T13:08:43.931Z,65535
2019-06-27T13:09:43.932Z,65535
2019-06-27T13:10:44.008Z,65535
2019-06-27T13:11:44.040Z,65535
2019-06-27T13:12:44.119Z,65535
2019-06-27T13:13:44.151Z,65535
2019-06-27T13:14:44.190Z,65535
2019-06-27T13:15:44.375Z,65535
2019-06-27T13:16:44.246Z,65535
2019-06-27T13:17:44.274Z,65535
2019-06-27T13:18:44.301Z,65535
2019-06-27T13:19:44.355Z,60848
2019-06-27T13:20:57.029Z,60824
2019-06-27T13:21:44.421Z,65535
2019-06-27T13:22:44.446Z,65535
2019-06-27T13:23:44.508Z,65535
2019-06-27T13:24:44.531Z,65535
2019-06-27T13:25:44.657Z,65535
2019-06-27T13:26:44.743Z,64136
2019-06-27T13:27:44.767Z,58000
2019-06-27T13:28:44.793Z,54928